This is the latest recevied weather packets stored in our database for station/object OE-11099. If no packets are shown the sender has not sent any weather packets the latest 10 day(s).
| Time | Temp. | Humidity | Pressure | Rain* | Wind** | Luminosity | Snow |
|---|---|---|---|---|---|---|---|
| 1787990705 | 17.78° C | 73% | 1017.8 hPa | 0 mm | - | 499 W/m² | - |
| 1787990106 | 18.33° C | 71% | 1017.9 hPa | 0 mm | - | 472 W/m² | - |
| 1787989278 | 17.22° C | 74% | 1018.2 hPa | 0 mm | - | 445 W/m² | - |
| 1787988906 | 17.22° C | 78% | 1018.3 hPa | 0 mm | - | 419 W/m² | - |
| 1787988305 | 16.67° C | 79% | 1018.4 hPa | 0 mm | - | 392 W/m² | - |
| 1787987479 | 16.11° C | 83% | 1018.5 hPa | 0 mm | - | 366 W/m² | - |
| 1787987106 | 15.56° C | 82% | 1018.7 hPa | 0 mm | - | 332 W/m² | - |
| 1787986506 | 15.56° C | 86% | 1018.7 hPa | 0 mm | - | 306 W/m² | - |
| 1787985679 | 15° C | 86% | 1018.9 hPa | 0 mm | - | 273 W/m² | - |
| 1787985305 | 14.44° C | 87% | 1019.2 hPa | 0 mm | - | 246 W/m² | - |
| 1787984706 | 13.89° C | 90% | 1019.3 hPa | 0 mm | - | 213 W/m² | - |
| 1787983879 | 13.33° C | 93% | 1019.4 hPa | 0 mm | - | 186 W/m² | - |
| 1787982906 | 12.78° C | 94% | 1019.7 hPa | 0 mm | - | 27 W/m² | - |
| 1787982078 | 12.78° C | 95% | 1019.7 hPa | 0 mm | - | 27 W/m² | - |
| 1787981706 | 12.78° C | 96% | 1019.8 hPa | 0 mm | - | 20 W/m² | - |
| 1787981105 | 12.78° C | 95% | 1019.7 hPa | 0 mm | - | 13 W/m² | - |
| 1787980278 | 12.78° C | 94% | 1019.4 hPa | 0 mm | - | 13 W/m² | - |
| 1787979905 | 12.78° C | 94% | 1019.3 hPa | 0 mm | - | 7 W/m² | - |
| 1787979306 | 12.78° C | 94% | 1019.1 hPa | 0 mm | - | 0 W/m² | - |
| 1787978479 | 12.78° C | 95% | 1019 hPa | 0 mm | - | 0 W/m² | - |
| 1787978105 | 12.78° C | 95% | 1019 hPa | 0 mm | - | 0 W/m² | - |
| 1787977506 | 12.78° C | 95% | 1018.9 hPa | 0 mm | - | 0 W/m² | - |
| 1787976679 | 12.78° C | 95% | 1018.9 hPa | 0 mm | - | 0 W/m² | - |
| 1787976306 | 12.78° C | 95% | 1018.8 hPa | 0 mm | - | 0 W/m² | - |
| 1787975706 | 13.33° C | 95% | 1018.9 hPa | 0 mm | - | 0 W/m² | - |
* Rain latest hour (hover to see other rain measurements)
** Current wind speed in m/s (hover to see current wind gust speed)